Time;durP1;ratioP1;P1;durP2;ratioP2;P2;SDS_P1;SDS_P2;PMS_P1;PMS_P2;Temp;Humidity;BMP_temperature;BMP_pressure;BME280_temperature;BME280_humidity;BME280_pressure;Samples;Min_cycle;Max_cycle;Signal;HPM_P1;HPM_P2
2021/06/18 00:00:29;;;;;;;7.53;6.15;;;614.60;1561.60;;;;;;5115756;28;20012;-76
2021/06/18 00:02:56;;;;;;;9.02;5.57;;;614.60;1561.60;;;;;;5114647;28;20030;-77
2021/06/18 00:05:22;;;;;;;10.85;5.78;;;614.60;1561.60;;;;;;5115677;28;20516;-77
2021/06/18 00:07:49;;;;;;;10.05;6.63;;;614.60;1561.60;;;;;;5112111;28;20119;-78
2021/06/18 00:10:18;;;;;;;12.85;5.97;;;614.60;1561.60;;;;;;5114455;28;20015;-54
2021/06/18 00:12:44;;;;;;;10.50;6.55;;;614.60;1561.60;;;;;;5114410;28;20028;-55
2021/06/18 00:15:11;;;;;;;7.15;5.95;;;614.50;1561.60;;;;;;5114585;28;20069;-54
2021/06/18 00:17:37;;;;;;;10.48;6.53;;;614.50;1561.60;;;;;;5114601;28;20051;-77
2021/06/18 00:20:05;;;;;;;8.70;6.05;;;614.50;1561.60;;;;;;5114412;28;20495;-55
2021/06/18 00:22:31;;;;;;;8.75;6.28;;;614.50;1587.20;;;;;;5114252;28;20421;-62
2021/06/18 00:24:57;;;;;;;6.75;6.05;;;614.40;1587.20;;;;;;5114523;28;20030;-54
2021/06/18 00:27:25;;;;;;;10.10;5.90;;;614.40;1587.20;;;;;;5114642;28;20070;-73
2021/06/18 00:29:51;;;;;;;10.35;6.30;;;614.40;1561.60;;;;;;5114231;28;20034;-77
2021/06/18 00:32:17;;;;;;;12.30;6.68;;;589.70;1587.20;;;;;;5114436;28;20028;-75
2021/06/18 00:34:43;;;;;;;9.45;6.03;;;589.70;1587.20;;;;;;5114076;28;20076;-76
2021/06/18 00:37:09;;;;;;;13.10;6.72;;;589.70;1612.80;;;;;;5114408;28;20058;-55
2021/06/18 00:39:35;;;;;;;10.27;6.35;;;589.40;1612.80;;;;;;5114155;28;20481;-55
2021/06/18 00:42:02;;;;;;;11.82;6.25;;;589.30;1638.40;;;;;;5114099;28;20043;-55
2021/06/18 00:44:28;;;;;;;13.88;6.25;;;589.30;1638.40;;;;;;5114109;28;20031;-55
2021/06/18 00:46:54;;;;;;;10.65;5.72;;;589.30;1638.40;;;;;;5113955;28;20028;-55
2021/06/18 00:49:21;;;;;;;8.10;5.20;;;589.30;1612.80;;;;;;5113915;28;20051;-75
2021/06/18 00:51:48;;;;;;;9.65;5.28;;;589.30;1612.80;;;;;;5113995;28;20019;-75
2021/06/18 00:54:27;;;;;;;8.05;5.32;;;589.20;1612.80;;;;;;5113946;28;20608;-54
2021/06/18 00:57:01;;;;;;;10.57;5.55;;;589.20;1612.80;;;;;;5114127;28;20514;-76
2021/06/18 00:59:27;;;;;;;;;;;589.20;1638.40;;;;;;5114621;28;20016;-76
2021/06/18 01:01:54;;;;;;;7.75;5.40;;;589.20;1638.40;;;;;;5114299;28;19904;-54
2021/06/18 01:04:27;;;;;;;8.85;5.65;;;589.10;1638.40;;;;;;5114064;28;20481;-55
2021/06/18 01:07:15;;;;;;;10.15;5.43;;;589.20;1612.80;;;;;;5113537;28;20492;-55
2021/06/18 01:09:58;;;;;;;8.32;5.10;;;589.30;1612.80;;;;;;5113985;28;20132;-76
2021/06/18 01:12:26;;;;;;;13.40;5.05;;;589.20;1612.80;;;;;;5113765;28;20077;-55
2021/06/18 01:14:56;;;;;;;7.60;5.35;;;589.20;1612.80;;;;;;5113945;28;20027;-55
2021/06/18 01:17:31;;;;;;;7.60;5.40;;;589.20;1612.80;;;;;;5113596;28;20024;-76
2021/06/18 01:20:23;;;;;;;9.45;5.40;;;589.20;1612.80;;;;;;5113648;28;20069;-54
2021/06/18 01:22:53;;;;;;;9.90;5.53;;;589.30;1612.80;;;;;;5113834;28;20027;-54
2021/06/18 01:25:26;;;;;;;12.07;5.50;;;589.20;1612.80;;;;;;5113591;28;20059;-78
2021/06/18 01:28:09;;;;;;;10.82;5.78;;;589.20;1612.80;;;;;;5113508;28;20039;-63
2021/06/18 01:30:36;;;;;;;10.43;6.00;;;589.20;1612.80;;;;;;5117887;28;20032;-55
2021/06/18 01:33:31;;;;;;;8.45;5.55;;;589.20;1612.80;;;;;;5117428;28;20020;-78
2021/06/18 01:35:59;;;;;;;10.07;5.95;;;589.10;1612.80;;;;;;5113288;28;20039;-54
2021/06/18 01:38:29;;;;;;;11.77;5.93;;;589.10;1612.80;;;;;;5117401;28;20043;-55
2021/06/18 01:40:59;;;;;;;10.18;5.93;;;589.10;1612.80;;;;;;5117233;28;20023;-55
2021/06/18 01:43:28;;;;;;;8.63;5.10;;;589.10;1638.40;;;;;;5117479;28;20027;-71
2021/06/18 01:45:56;;;;;;;10.88;5.70;;;589.10;1638.40;;;;;;5117460;28;20038;-55
2021/06/18 01:48:24;;;;;;;9.65;5.88;;;589.00;1638.40;;;;;;5132934;27;20027;-54
2021/06/18 01:50:54;;;;;;;14.35;5.55;;;589.00;1638.40;;;;;;5117085;28;20026;-55
2021/06/18 01:53:22;;;;;;;7.25;5.60;;;588.90;1638.40;;;;;;5117295;28;20441;-79
2021/06/18 01:55:49;;;;;;;14.82;6.32;;;588.90;1638.40;;;;;;5117119;28;20026;-55
2021/06/18 01:58:18;;;;;;;7.05;6.00;;;588.90;1638.40;;;;;;5117251;28;20019;-55
2021/06/18 02:00:50;;;;;;;7.40;5.60;;;588.90;1612.80;;;;;;5117207;28;20026;-77
2021/06/18 02:03:24;;;;;;;10.15;5.80;;;588.80;1638.40;;;;;;5117305;28;20032;-55
2021/06/18 02:05:53;;;;;;;10.43;6.28;;;588.80;1638.40;;;;;;5116672;28;20047;-54
2021/06/18 02:08:20;;;;;;;9.38;5.78;;;564.10;1664.00;;;;;;5116777;28;20119;-54
2021/06/18 02:10:47;;;;;;;13.07;6.57;;;564.10;1638.40;;;;;;5117016;28;20498;-55
2021/06/18 02:13:16;;;;;;;8.90;6.93;;;564.10;1664.00;;;;;;5116744;28;20028;-55
2021/06/18 02:15:43;;;;;;;9.60;6.15;;;563.90;1664.00;;;;;;5116961;28;20012;-77
2021/06/18 02:18:15;;;;;;;10.43;6.07;;;563.90;1664.00;;;;;;5117414;28;20031;-54
2021/06/18 02:20:43;;;;;;;10.30;5.80;;;564.00;1664.00;;;;;;5117839;28;20015;-76
2021/06/18 02:23:10;;;;;;;11.77;6.22;;;564.00;1664.00;;;;;;5116701;28;20479;-77
2021/06/18 02:25:38;;;;;;;11.68;6.90;;;564.00;1638.40;;;;;;5116917;28;20031;-56
2021/06/18 02:28:06;;;;;;;12.73;6.55;;;564.00;1638.40;;;;;;5116389;28;20039;-78
2021/06/18 02:30:32;;;;;;;11.15;6.32;;;563.90;1689.60;;;;;;5116601;28;20024;-77
2021/06/18 02:33:00;;;;;;;11.18;6.32;;;563.90;1664.00;;;;;;5116660;28;20027;-78
2021/06/18 02:35:27;;;;;;;7.70;6.50;;;563.90;1664.00;;;;;;5116628;28;20073;-78
2021/06/18 02:37:53;;;;;;;10.57;6.43;;;563.90;1664.00;;;;;;5116195;28;20024;-74
2021/06/18 02:40:19;;;;;;;14.05;6.97;;;563.90;1664.00;;;;;;5115219;28;20024;-55
2021/06/18 02:42:46;;;;;;;11.82;6.88;;;564.00;1638.40;;;;;;5116093;28;20107;-55
2021/06/18 02:45:12;;;;;;;9.45;6.53;;;563.90;1664.00;;;;;;5116041;28;20552;-54
2021/06/18 02:48:02;;;;;;;13.23;6.82;;;563.90;1664.00;;;;;;5116335;28;20065;-77
2021/06/18 02:50:43;;;;;;;9.80;6.78;;;563.90;1664.00;;;;;;5115945;28;20027;-54
2021/06/18 02:53:34;;;;;;;8.98;6.85;;;563.90;1664.00;;;;;;5115900;28;20034;-55
2021/06/18 02:56:20;;;;;;;9.52;6.20;;;563.70;1689.60;;;;;;5115871;28;20031;-54
2021/06/18 02:59:11;;;;;;;10.20;7.03;;;563.60;1689.60;;;;;;5101577;28;20032;-55
2021/06/18 03:01:38;;;;;;;12.60;6.35;;;563.70;1689.60;;;;;;5116117;28;20075;-55
2021/06/18 03:04:06;;;;;;;7.90;6.35;;;563.60;1689.60;;;;;;5115694;28;20039;-63
2021/06/18 03:06:56;;;;;;;8.63;6.63;;;563.50;1715.20;;;;;;5115467;28;20048;-77
2021/06/18 03:09:28;;;;;;;9.55;6.20;;;563.50;1689.60;;;;;;5073287;28;20044;-56
2021/06/18 03:11:56;;;;;;;10.18;5.93;;;563.60;1689.60;;;;;;5072934;28;20261;-55
2021/06/18 03:14:25;;;;;;;12.15;6.00;;;563.60;1689.60;;;;;;5073031;28;20041;-54
2021/06/18 03:16:57;;;;;;;10.63;6.18;;;563.50;1689.60;;;;;;5072755;28;20155;-78
2021/06/18 03:19:32;;;;;;;16.47;6.73;;;563.60;1664.00;;;;;;5072910;28;20028;-54
2021/06/18 03:22:02;;;;;;;12.07;6.45;;;563.60;1664.00;;;;;;5072636;28;20258;-77
2021/06/18 03:24:32;;;;;;;13.18;6.22;;;563.60;1689.60;;;;;;5072534;28;20040;-55
2021/06/18 03:26:59;;;;;;;11.52;6.50;;;563.60;1664.00;;;;;;5072799;28;20102;-55
2021/06/18 03:29:28;;;;;;;15.18;6.85;;;563.60;1664.00;;;;;;5072600;28;20568;-77
2021/06/18 03:31:55;;;;;;;9.52;6.32;;;563.60;1664.00;;;;;;5073015;28;20064;-55
2021/06/18 03:34:24;;;;;;;12.10;7.10;;;563.50;1664.00;;;;;;5072376;28;20575;-54
2021/06/18 03:36:51;;;;;;;12.63;7.32;;;563.50;1664.00;;;;;;5072332;28;20382;-55
2021/06/18 03:39:21;;;;;;;19.60;7.10;;;563.50;1689.60;;;;;;5075634;28;20024;-78
2021/06/18 03:41:47;;;;;;;12.80;7.07;;;563.50;1689.60;;;;;;5114913;28;20039;-54
2021/06/18 03:44:15;;;;;;;15.23;7.72;;;563.50;1689.60;;;;;;5115157;28;20043;-78
2021/06/18 03:46:45;;;;;;;14.80;6.95;;;563.50;1715.20;;;;;;5114905;28;20026;-77
2021/06/18 03:49:12;;;;;;;10.75;6.63;;;563.30;1689.60;;;;;;5114963;28;20041;-55
2021/06/18 03:51:38;;;;;;;14.57;6.20;;;563.30;1689.60;;;;;;5114472;28;20024;-54
2021/06/18 03:54:05;;;;;;;8.63;5.85;;;563.30;1689.60;;;;;;5114742;28;20084;-77
2021/06/18 03:56:32;;;;;;;12.05;5.90;;;563.30;1715.20;;;;;;5114671;28;20020;-78
2021/06/18 03:58:59;;;;;;;11.57;6.10;;;563.40;1689.60;;;;;;5114801;28;20016;-80
2021/06/18 04:01:26;;;;;;;20.30;6.78;;;563.40;1689.60;;;;;;5114571;28;20016;-77
2021/06/18 04:03:54;;;;;;;18.15;6.88;;;563.40;1689.60;;;;;;5114593;28;20507;-54
2021/06/18 04:06:21;;;;;;;13.10;6.95;;;563.50;1689.60;;;;;;5114413;28;20047;-55
2021/06/18 04:08:48;;;;;;;13.85;6.43;;;563.50;1689.60;;;;;;5114718;28;20486;-55
2021/06/18 04:11:15;;;;;;;11.95;6.85;;;563.50;1689.60;;;;;;5114536;28;20028;-54
2021/06/18 04:13:41;;;;;;;16.48;6.47;;;563.50;1689.60;;;;;;5114446;28;20019;-76
2021/06/18 04:16:12;;;;;;;16.38;6.82;;;563.50;1689.60;;;;;;5114659;28;20379;-78
2021/06/18 04:18:45;;;;;;;17.92;6.43;;;563.60;1689.60;;;;;;5114414;28;20498;-55
2021/06/18 04:21:15;;;;;;;11.45;6.40;;;563.60;1689.60;;;;;;5114685;28;20384;-68
2021/06/18 04:23:41;;;;;;;10.90;5.97;;;563.70;1689.60;;;;;;5114291;28;20019;-77
2021/06/18 04:26:07;;;;;;;16.38;6.47;;;563.70;1689.60;;;;;;5114257;28;20015;-68
2021/06/18 04:28:35;;;;;;;9.90;6.20;;;563.70;1740.80;;;;;;5114291;28;20416;-54
2021/06/18 04:31:01;;;;;;;12.93;6.15;;;563.70;1689.60;;;;;;5114489;28;20015;-55
2021/06/18 04:33:27;;;;;;;14.70;6.35;;;563.70;1715.20;;;;;;5130069;27;20106;-55
2021/06/18 04:35:54;;;;;;;9.52;5.78;;;563.70;1715.20;;;;;;5114478;28;20102;-55
2021/06/18 04:38:20;;;;;;;9.13;6.03;;;563.70;1715.20;;;;;;5114248;28;20037;-54
2021/06/18 04:40:46;;;;;;;8.80;6.07;;;563.80;1689.60;;;;;;5114177;28;20533;-56
2021/06/18 04:43:12;;;;;;;9.05;6.28;;;563.90;1689.60;;;;;;5114387;28;20023;-58
2021/06/18 04:45:38;;;;;;;8.90;6.30;;;564.00;1689.60;;;;;;5114654;28;20047;-54
2021/06/18 04:48:06;;;;;;;8.77;5.40;;;564.00;1715.20;;;;;;5114762;28;20055;-55
2021/06/18 04:50:32;;;;;;;9.15;5.32;;;564.00;1689.60;;;;;;5115561;28;20033;-55
2021/06/18 04:53:00;;;;;;;11.90;6.15;;;564.00;1689.60;;;;;;5114766;28;20067;-76
2021/06/18 04:55:26;;;;;;;13.55;6.13;;;564.00;1715.20;;;;;;5116400;28;20494;-72
2021/06/18 04:57:52;;;;;;;12.70;5.93;;;564.00;1715.20;;;;;;5114786;28;20472;-76
2021/06/18 05:00:18;;;;;;;12.55;6.18;;;564.10;1689.60;;;;;;5114499;28;20020;-54
2021/06/18 05:02:44;;;;;;;16.10;5.78;;;564.10;1689.60;;;;;;5113793;28;20020;-55
2021/06/18 05:05:11;;;;;;;17.20;6.93;;;564.10;1689.60;;;;;;5117663;28;20042;-54
2021/06/18 05:07:36;;;;;;;13.00;6.35;;;588.80;1689.60;;;;;;5117845;28;20075;-56
2021/06/18 05:10:03;;;;;;;11.77;6.30;;;588.80;1715.20;;;;;;5117902;28;20046;-54
2021/06/18 05:12:29;;;;;;;9.90;6.03;;;588.80;1689.60;;;;;;5117884;28;20023;-63
2021/06/18 05:14:55;;;;;;;11.27;5.78;;;588.90;1689.60;;;;;;5117482;28;20598;-58
2021/06/18 05:17:20;;;;;;;10.90;5.95;;;588.90;1715.20;;;;;;5117887;28;20030;-55
2021/06/18 05:19:46;;;;;;;10.32;5.95;;;588.90;1689.60;;;;;;5117662;28;20391;-55
2021/06/18 05:22:12;;;;;;;10.10;5.82;;;589.00;1689.60;;;;;;5117671;28;20108;-54
2021/06/18 05:24:38;;;;;;;9.20;5.70;;;589.00;1689.60;;;;;;5117577;28;20073;-54
2021/06/18 05:27:04;;;;;;;10.23;5.63;;;589.00;1715.20;;;;;;5117791;28;20028;-78
2021/06/18 05:29:30;;;;;;;7.97;5.40;;;589.00;1766.40;;;;;;5117503;28;20084;-55
2021/06/18 05:31:56;;;;;;;8.23;5.90;;;589.00;1766.40;;;;;;5117746;28;20023;-56
2021/06/18 05:34:22;;;;;;;8.55;5.50;;;589.00;1792.00;;;;;;5117376;28;20020;-75
2021/06/18 05:36:48;;;;;;;6.82;5.40;;;589.00;1766.40;;;;;;5117401;28;20030;-55
2021/06/18 05:39:15;;;;;;;11.30;4.95;;;589.00;1740.80;;;;;;5117379;28;20043;-55
2021/06/18 05:41:41;;;;;;;12.68;4.90;;;589.10;1715.20;;;;;;5117437;28;20069;-64
2021/06/18 05:44:08;;;;;;;6.88;5.15;;;589.20;1689.60;;;;;;5117520;28;20069;-56
2021/06/18 05:46:34;;;;;;;8.77;5.85;;;589.20;1740.80;;;;;;5117192;28;20062;-57
2021/06/18 05:49:00;;;;;;;6.32;5.07;;;589.30;1740.80;;;;;;5117109;28;20032;-55
2021/06/18 05:51:26;;;;;;;10.43;5.20;;;589.30;1740.80;;;;;;5117059;28;20016;-56
2021/06/18 05:53:53;;;;;;;11.73;5.38;;;589.40;1715.20;;;;;;5117377;28;20038;-55
2021/06/18 05:56:20;;;;;;;7.63;4.97;;;589.50;1689.60;;;;;;5117266;28;20062;-55
2021/06/18 05:58:46;;;;;;;7.82;4.93;;;589.60;1689.60;;;;;;5117029;28;20061;-55
2021/06/18 06:01:12;;;;;;;10.30;4.93;;;589.70;1689.60;;;;;;5116864;28;20024;-55
2021/06/18 06:03:40;;;;;;;8.70;5.70;;;614.40;1689.60;;;;;;5116947;28;20054;-54
2021/06/18 06:06:08;;;;;;;8.98;4.47;;;614.40;1689.60;;;;;;5116745;28;20074;-54
2021/06/18 06:08:35;;;;;;;11.25;4.47;;;614.40;1689.60;;;;;;5116751;28;20142;-55
2021/06/18 06:11:01;;;;;;;8.90;4.32;;;614.50;1664.00;;;;;;5116749;28;20102;-54
2021/06/18 06:13:27;;;;;;;7.55;4.70;;;614.60;1664.00;;;;;;5116995;28;20124;-55
2021/06/18 06:15:53;;;;;;;7.93;4.32;;;614.60;1664.00;;;;;;5116572;28;20015;-54
2021/06/18 06:18:19;;;;;;;7.05;4.40;;;614.80;1638.40;;;;;;5116601;28;20491;-54
2021/06/18 06:20:47;;;;;;;4.82;4.00;;;614.90;1638.40;;;;;;5116470;28;20032;-54
2021/06/18 06:23:14;;;;;;;6.65;4.60;;;614.90;1638.40;;;;;;5116473;28;20027;-54
2021/06/18 06:25:41;;;;;;;11.18;4.20;;;614.90;1612.80;;;;;;5116358;28;20052;-54
2021/06/18 06:28:07;;;;;;;4.00;3.60;;;615.00;1638.40;;;;;;5116347;28;20028;-55
2021/06/18 06:30:34;;;;;;;6.85;3.63;;;615.20;1587.20;;;;;;5115934;28;20043;-55
2021/06/18 06:33:00;;;;;;;8.38;4.30;;;615.30;1587.20;;;;;;5116380;28;20023;-56
2021/06/18 06:35:26;;;;;;;5.60;3.63;;;640.00;1612.80;;;;;;5116191;28;20026;-55
2021/06/18 06:37:53;;;;;;;6.95;4.18;;;640.10;1587.20;;;;;;5116193;28;20030;-60
2021/06/18 06:40:22;;;;;;;7.53;3.95;;;640.20;1587.20;;;;;;5116217;28;20136;-55
2021/06/18 06:42:48;;;;;;;5.35;3.47;;;640.30;1587.20;;;;;;5116115;28;20058;-55
2021/06/18 06:45:14;;;;;;;6.65;3.78;;;640.50;1561.60;;;;;;5116040;28;20024;-54
2021/06/18 06:47:40;;;;;;;9.32;3.85;;;640.60;1561.60;;;;;;5116037;28;20032;-55
2021/06/18 06:50:10;;;;;;;7.72;3.50;;;640.70;1536.00;;;;;;5115858;28;20388;-55
2021/06/18 06:52:36;;;;;;;13.20;4.07;;;640.80;1510.40;;;;;;5116253;28;20016;-54
2021/06/18 06:55:02;;;;;;;7.72;3.75;;;665.60;1536.00;;;;;;5115905;28;20054;-56
2021/06/18 06:57:28;;;;;;;7.22;3.30;;;665.60;1510.40;;;;;;5115804;28;20015;-55
2021/06/18 06:59:54;;;;;;;11.60;3.50;;;665.70;1510.40;;;;;;5115764;28;20019;-55
2021/06/18 07:02:20;;;;;;;5.55;3.70;;;665.80;1536.00;;;;;;5115679;28;20045;-57
2021/06/18 07:04:46;;;;;;;6.18;3.55;;;666.00;1510.40;;;;;;5115197;28;20023;-73
2021/06/18 07:07:13;;;;;;;10.25;3.38;;;666.10;1484.80;;;;;;5114620;28;20031;-54
2021/06/18 07:09:39;;;;;;;10.93;3.67;;;666.10;1484.80;;;;;;5114870;28;20031;-54
2021/06/18 07:12:06;;;;;;;7.55;3.42;;;666.30;1459.20;;;;;;5114887;28;20054;-56
2021/06/18 07:14:33;;;;;;;5.45;4.03;;;666.30;1459.20;;;;;;5114546;28;20015;-56
2021/06/18 07:16:59;;;;;;;9.90;3.50;;;666.50;1433.60;;;;;;5114481;28;20513;-54
2021/06/18 07:19:25;;;;;;;9.15;3.33;;;691.20;1433.60;;;;;;5114523;28;20024;-55
2021/06/18 07:21:50;;;;;;;8.52;3.50;;;691.20;1408.00;;;;;;5114359;28;20020;-54
2021/06/18 07:24:16;;;;;;;7.95;2.63;;;691.30;1408.00;;;;;;5114269;28;20031;-55
2021/06/18 07:26:42;;;;;;;6.18;2.88;;;691.30;1382.40;;;;;;5113762;28;20048;-61
2021/06/18 07:29:08;;;;;;;3.72;2.83;;;691.30;1382.40;;;;;;5114335;28;20023;-55
2021/06/18 07:31:35;;;;;;;4.28;2.45;;;691.40;1331.20;;;;;;5114439;28;20020;-56
2021/06/18 07:34:03;;;;;;;7.28;3.30;;;691.50;1356.80;;;;;;5114548;28;20468;-55
2021/06/18 07:36:29;;;;;;;7.40;2.60;;;691.60;1356.80;;;;;;5115077;28;20028;-55
2021/06/18 07:38:55;;;;;;;7.40;3.00;;;691.70;1356.80;;;;;;5114170;28;20495;-58
2021/06/18 07:41:21;;;;;;;6.75;2.88;;;691.70;1331.20;;;;;;5114611;28;20024;-59
2021/06/18 07:43:47;;;;;;;9.88;2.83;;;691.70;1356.80;;;;;;5114758;28;20471;-55
2021/06/18 07:46:13;;;;;;;8.30;2.95;;;691.80;1331.20;;;;;;5114791;28;20019;-58
2021/06/18 07:48:39;;;;;;;8.25;3.13;;;691.80;1331.20;;;;;;5114769;28;20032;-55
2021/06/18 07:51:05;;;;;;;3.25;2.75;;;691.90;1356.80;;;;;;5114728;28;20019;-76
2021/06/18 07:53:31;;;;;;;12.57;3.08;;;691.90;1356.80;;;;;;5114439;28;20019;-57
2021/06/18 07:55:57;;;;;;;4.13;2.78;;;692.00;1356.80;;;;;;5114523;28;20026;-55
2021/06/18 07:58:23;;;;;;;9.88;2.70;;;692.00;1331.20;;;;;;5114702;28;20039;-55
2021/06/18 08:00:49;;;;;;;10.75;2.90;;;692.00;1305.60;;;;;;5114618;28;20028;-55
2021/06/18 08:03:15;;;;;;;4.43;2.50;;;692.00;1305.60;;;;;;5114481;28;20149;-55
2021/06/18 08:05:41;;;;;;;6.15;2.30;;;692.10;1305.60;;;;;;5114466;28;20188;-55
2021/06/18 08:08:06;;;;;;;6.70;2.22;;;716.80;1331.20;;;;;;5114253;28;20057;-55
2021/06/18 08:10:33;;;;;;;7.50;2.70;;;716.80;1305.60;;;;;;5114394;28;20102;-55
2021/06/18 08:12:59;;;;;;;6.40;2.70;;;716.80;1305.60;;;;;;5114282;28;20030;-59
2021/06/18 08:15:25;;;;;;;5.22;2.50;;;716.90;1305.60;;;;;;5113515;28;20019;-55
2021/06/18 08:17:52;;;;;;;4.00;2.60;;;716.90;1305.60;;;;;;5112288;28;20035;-55
2021/06/18 08:20:20;;;;;;;2.70;2.13;;;716.90;1280.00;;;;;;5113414;28;20051;-55
2021/06/18 08:22:47;;;;;;;4.68;2.47;;;717.00;1280.00;;;;;;5106596;28;20016;-72
2021/06/18 08:25:14;;;;;;;11.75;3.35;;;717.00;1280.00;;;;;;5092212;28;20028;-57
2021/06/18 08:27:40;;;;;;;5.20;3.05;;;717.00;1305.60;;;;;;5112763;28;20074;-66
2021/06/18 08:30:07;;;;;;;6.43;2.55;;;717.10;1254.40;;;;;;5112504;28;20027;-58
2021/06/18 08:32:33;;;;;;;6.78;2.53;;;717.20;1254.40;;;;;;5112795;28;20020;-56
2021/06/18 08:34:59;;;;;;;6.05;2.72;;;717.20;1280.00;;;;;;5112458;28;20114;-55
2021/06/18 08:37:25;;;;;;;5.13;2.92;;;717.20;1254.40;;;;;;5112084;28;20030;-55
2021/06/18 08:39:51;;;;;;;9.32;2.97;;;717.20;1228.80;;;;;;5112028;28;20080;-57
2021/06/18 08:42:17;;;;;;;4.20;2.78;;;717.30;1254.40;;;;;;5112366;28;20072;-58
2021/06/18 08:44:45;;;;;;;4.10;2.42;;;717.40;1254.40;;;;;;5112497;28;20035;-75
2021/06/18 08:47:14;;;;;;;5.22;2.65;;;717.40;1228.80;;;;;;5112105;28;20029;-55
2021/06/18 08:49:41;;;;;;;7.13;3.30;;;717.40;1228.80;;;;;;5112461;28;20023;-56
2021/06/18 08:52:07;;;;;;;7.55;2.50;;;717.50;1254.40;;;;;;5111975;28;20137;-61
2021/06/18 08:54:42;;;;;;;8.85;2.80;;;717.50;1228.80;;;;;;5112775;28;20039;-60
2021/06/18 08:57:19;;;;;;;4.25;2.47;;;717.50;1177.60;;;;;;5111298;28;20479;-55
2021/06/18 08:59:47;;;;;;;4.20;2.20;;;717.50;1203.20;;;;;;5112966;28;20031;-56
2021/06/18 09:02:14;;;;;;;7.32;2.45;;;717.50;1203.20;;;;;;5113560;28;20016;-55
2021/06/18 09:05:13;;;;;;;4.00;2.30;;;717.60;1228.80;;;;;;5113057;28;20027;-59
2021/06/18 09:07:49;;;;;;;4.30;2.50;;;717.60;1228.80;;;;;;5011268;28;20048;-55
2021/06/18 09:10:47;;;;;;;11.50;2.75;;;717.70;1203.20;;;;;;5011132;28;20069;-55
2021/06/18 09:13:31;;;;;;;20.60;2.67;;;742.40;1254.40;;;;;;4940224;28;20042;-54
2021/06/18 09:15:59;;;;;;;22.55;3.10;;;742.40;1254.40;;;;;;4965578;28;20122;-55
2021/06/18 09:18:39;;;;;;;7.47;2.83;;;742.40;1254.40;;;;;;4972053;28;20038;-55
2021/06/18 09:21:14;;;;;;;6.88;2.20;;;742.40;1203.20;;;;;;4972091;28;20083;-55
2021/06/18 09:23:49;;;;;;;9.43;2.28;;;742.40;1228.80;;;;;;4950662;28;20476;-60
2021/06/18 09:26:24;;;;;;;9.13;2.40;;;742.50;1203.20;;;;;;4935168;29;20042;-55
2021/06/18 09:29:07;;;;;;;4.47;2.42;;;742.50;1203.20;;;;;;4951073;29;20047;-55
2021/06/18 09:31:37;;;;;;;6.15;2.22;;;742.50;1228.80;;;;;;4951087;29;20027;-55
2021/06/18 09:34:04;;;;;;;4.25;2.40;;;742.50;1177.60;;;;;;4950765;29;20023;-58
2021/06/18 09:36:30;;;;;;;5.30;2.22;;;742.50;1177.60;;;;;;4951181;29;20047;-58
2021/06/18 09:38:57;;;;;;;6.28;2.45;;;742.50;1152.00;;;;;;4950847;29;20524;-71
2021/06/18 09:41:34;;;;;;;4.43;2.40;;;742.50;1177.60;;;;;;4950982;29;20404;-68
2021/06/18 09:44:08;;;;;;;6.40;2.40;;;742.50;1152.00;;;;;;4982304;28;20475;-60
2021/06/18 09:46:54;;;;;;;5.10;2.10;;;742.50;1203.20;;;;;;4989740;28;20026;-62
2021/06/18 09:49:29;;;;;;;5.63;2.63;;;742.50;1126.40;;;;;;5062932;28;20044;-60
2021/06/18 09:51:57;;;;;;;3.95;1.92;;;742.50;1152.00;;;;;;5095301;28;20030;-72
2021/06/18 09:54:31;;;;;;;5.80;1.98;;;742.50;1152.00;;;;;;5095029;28;20028;-60
2021/06/18 09:57:13;;;;;;;14.60;2.70;;;742.50;1152.00;;;;;;5095199;28;20024;-56
2021/06/18 09:59:48;;;;;;;8.90;2.30;;;742.50;1177.60;;;;;;5094892;28;20024;-65
2021/06/18 10:02:14;;;;;;;16.23;2.95;;;742.60;1203.20;;;;;;5095092;28;20495;-56
2021/06/18 10:04:41;;;;;;;5.47;2.60;;;742.50;1203.20;;;;;;5094291;28;20028;-62
2021/06/18 10:07:08;;;;;;;3.97;2.00;;;742.60;1177.60;;;;;;5095016;28;20082;-62
2021/06/18 10:09:34;;;;;;;9.98;2.25;;;742.60;1177.60;;;;;;5094658;28;20040;-70
2021/06/18 10:12:01;;;;;;;12.48;3.05;;;742.60;1203.20;;;;;;5094869;28;20074;-66
2021/06/18 10:14:28;;;;;;;4.80;2.42;;;742.70;1203.20;;;;;;5094747;28;20103;-56
2021/06/18 10:16:54;;;;;;;12.35;3.13;;;742.80;1177.60;;;;;;5095010;28;20099;-60
2021/06/18 10:19:20;;;;;;;6.45;2.53;;;742.90;1152.00;;;;;;5095244;28;20024;-69
2021/06/18 10:22:01;;;;;;;13.27;2.90;;;742.80;1203.20;;;;;;5094542;28;20107;-62
2021/06/18 10:24:35;;;;;;;16.75;2.95;;;742.90;1228.80;;;;;;5103799;28;20027;-62
2021/06/18 10:27:03;;;;;;;8.88;3.55;;;742.90;1152.00;;;;;;5113605;28;20049;-62
2021/06/18 10:29:31;;;;;;;5.45;2.70;;;742.90;1152.00;;;;;;5113591;28;20032;-60
2021/06/18 10:31:57;;;;;;;5.38;2.33;;;742.90;1177.60;;;;;;5095208;28;20026;-71
2021/06/18 10:34:38;;;;;;;4.28;2.28;;;742.90;1152.00;;;;;;5113171;28;20015;-72
2021/06/18 10:37:31;;;;;;;5.05;2.35;;;743.00;1152.00;;;;;;5111030;28;20383;-76
2021/06/18 10:40:06;;;;;;;6.50;2.67;;;742.90;1152.00;;;;;;5108230;28;20148;-76
2021/06/18 10:42:32;;;;;;;9.13;3.35;;;743.10;1152.00;;;;;;5111828;28;20107;-56
2021/06/18 10:44:58;;;;;;;4.57;2.40;;;742.90;1177.60;;;;;;5113022;28;20095;-66
2021/06/18 10:47:24;;;;;;;6.97;2.58;;;742.90;1177.60;;;;;;5110521;28;20027;-68
2021/06/18 10:49:52;;;;;;;3.58;2.65;;;742.90;1152.00;;;;;;5113169;28;20477;-64
2021/06/18 10:52:26;;;;;;;4.43;2.83;;;743.00;1177.60;;;;;;5113151;28;20123;-72
2021/06/18 10:55:32;;;;;;;5.63;2.42;;;743.00;1152.00;;;;;;5110977;28;20511;-70
2021/06/18 10:57:58;;;;;;;5.88;2.65;;;743.10;1152.00;;;;;;5112242;28;20016;-72
2021/06/18 11:00:27;;;;;;;4.63;2.30;;;743.00;1152.00;;;;;;5110105;28;20020;-64
2021/06/18 11:02:53;;;;;;;3.95;2.38;;;743.00;1152.00;;;;;;5112579;28;20020;-67
2021/06/18 11:05:24;;;;;;;8.73;2.72;;;743.00;1152.00;;;;;;5112417;28;20046;-63
2021/06/18 11:07:50;;;;;;;6.68;2.58;;;743.00;1126.40;;;;;;5111157;28;20095;-56
2021/06/18 11:10:29;;;;;;;4.18;2.38;;;743.10;1126.40;;;;;;5112705;28;20811;-59
2021/06/18 11:12:59;;;;;;;5.82;2.00;;;743.10;1100.80;;;;;;5112069;28;20386;-58
2021/06/18 11:15:25;;;;;;;5.10;2.50;;;743.10;1100.80;;;;;;5112586;28;20054;-60
2021/06/18 11:18:04;;;;;;;6.72;2.97;;;743.10;1126.40;;;;;;5112698;28;20053;-71
2021/06/18 11:20:35;;;;;;;3.38;2.78;;;743.10;1126.40;;;;;;5110987;28;20391;-69
2021/06/18 11:23:21;;;;;;;4.10;3.03;;;743.10;1100.80;;;;;;5112358;28;20485;-56
2021/06/18 11:25:54;;;;;;;4.60;3.03;;;743.10;1126.40;;;;;;5110064;28;20027;-70
2021/06/18 11:28:20;;;;;;;3.42;2.65;;;743.10;1152.00;;;;;;5112495;28;20030;-68
2021/06/18 11:30:50;;;;;;;6.50;2.47;;;743.10;1126.40;;;;;;5112663;28;20007;-60
2021/06/18 11:33:46;;;;;;;6.35;2.40;;;743.10;1126.40;;;;;;5112382;28;20027;-68
2021/06/18 11:36:22;;;;;;;9.40;2.10;;;743.10;1100.80;;;;;;5110564;28;20077;-56
2021/06/18 11:39:00;;;;;;;7.22;2.60;;;743.20;1126.40;;;;;;5111628;27;20047;-59
2021/06/18 11:41:30;;;;;;;5.55;2.30;;;743.30;1126.40;;;;;;5110320;28;20026;-56
2021/06/18 11:43:59;;;;;;;3.70;2.40;;;743.30;1126.40;;;;;;5111839;28;20016;-65
2021/06/18 11:46:27;;;;;;;7.38;2.55;;;768.00;1100.80;;;;;;5108649;28;20051;-58
2021/06/18 11:48:57;;;;;;;6.78;2.10;;;768.00;1100.80;;;;;;5111489;28;20100;-58
2021/06/18 11:51:25;;;;;;;6.63;2.08;;;768.00;1049.60;;;;;;5111616;28;20019;-55
2021/06/18 11:53:51;;;;;;;3.63;2.25;;;768.10;1049.60;;;;;;5111929;28;20511;-65
2021/06/18 11:56:17;;;;;;;7.40;1.83;;;768.20;1049.60;;;;;;5111699;28;20027;-66
2021/06/18 11:58:46;;;;;;;6.93;2.00;;;768.20;1024.00;;;;;;5111889;28;20020;-77
2021/06/18 12:01:13;;;;;;;7.05;2.47;;;768.30;1049.60;;;;;;5111356;28;20472;-70
2021/06/18 12:03:39;;;;;;;9.63;1.92;;;768.30;1075.20;;;;;;5111999;28;20095;-62
2021/06/18 12:06:19;;;;;;;9.40;2.70;;;768.40;1024.00;;;;;;5108511;28;20043;-62
2021/06/18 12:09:00;;;;;;;11.75;2.80;;;768.40;1075.20;;;;;;5109141;28;20066;-64
2021/06/18 12:11:27;;;;;;;11.18;2.30;;;768.40;1049.60;;;;;;5109661;28;20094;-58
2021/06/18 12:13:54;;;;;;;6.60;2.45;;;768.50;1049.60;;;;;;5113043;28;20488;-56
2021/06/18 12:16:28;;;;;;;7.07;2.40;;;768.50;1049.60;;;;;;5110291;28;20111;-56
2021/06/18 12:18:55;;;;;;;9.70;1.90;;;768.50;1075.20;;;;;;5112565;28;20110;-58
2021/06/18 12:21:27;;;;;;;5.70;2.20;;;768.50;1075.20;;;;;;5112722;28;20476;-55
2021/06/18 12:24:06;;;;;;;6.88;2.22;;;768.50;1049.60;;;;;;5112565;28;20380;-63